createdAt,value
2023-06-03T00:02:06.211Z,2.85
2023-06-03T00:05:08.324Z,3.58
2023-06-03T00:08:10.500Z,3.00
2023-06-03T00:11:12.968Z,3.00
2023-06-03T00:14:14.777Z,2.97
2023-06-03T00:17:16.931Z,2.85
2023-06-03T00:20:18.972Z,3.13
2023-06-03T00:23:20.851Z,2.95
2023-06-03T00:26:23.277Z,2.85
2023-06-03T00:29:30.737Z,2.75
2023-06-03T00:32:32.963Z,3.00
2023-06-03T00:35:35.298Z,2.50
2023-06-03T00:38:37.051Z,2.75
2023-06-03T00:41:39.025Z,2.72
2023-06-03T00:44:40.946Z,2.60
2023-06-03T00:47:42.921Z,2.40
2023-06-03T00:50:45.438Z,2.70
2023-06-03T00:53:47.400Z,2.80
2023-06-03T00:56:49.232Z,2.67
2023-06-03T00:59:51.120Z,2.40
2023-06-03T01:02:53.621Z,2.40
2023-06-03T01:06:09.329Z,2.47
2023-06-03T01:09:25.154Z,2.22
2023-06-03T01:12:29.810Z,2.40
2023-06-03T01:15:33.131Z,2.65
2023-06-03T01:18:37.562Z,2.40
2023-06-03T01:21:41.773Z,2.47
2023-06-03T01:24:44.957Z,2.35
2023-06-03T01:27:50.109Z,2.45
2023-06-03T01:30:52.946Z,2.28
2023-06-03T01:33:55.193Z,2.13
2023-06-03T01:36:58.651Z,2.90
2023-06-03T01:40:01.825Z,2.40
2023-06-03T01:43:07.767Z,2.83
2023-06-03T01:46:09.920Z,2.30
2023-06-03T01:49:12.335Z,2.08
2023-06-03T01:52:14.285Z,2.30
2023-06-03T01:55:16.213Z,2.45
2023-06-03T01:58:18.496Z,2.30
2023-06-03T02:01:20.356Z,2.45
2023-06-03T02:04:22.800Z,2.40
2023-06-03T02:07:27.244Z,2.30
2023-06-03T02:10:29.059Z,2.30
2023-06-03T02:13:30.923Z,2.13
2023-06-03T02:16:33.578Z,2.72
2023-06-03T02:19:36.041Z,2.50
2023-06-03T02:22:38.626Z,1.90
2023-06-03T02:25:41.271Z,1.85
2023-06-03T02:28:43.046Z,1.98
2023-06-03T02:31:45.149Z,1.90
2023-06-03T02:34:51.537Z,2.15
2023-06-03T02:37:53.511Z,1.80
2023-06-03T02:40:55.267Z,1.77
2023-06-03T02:43:57.373Z,1.90
2023-06-03T02:46:59.118Z,1.92
2023-06-03T02:50:01.284Z,1.60
2023-06-03T02:53:05.303Z,3.00
2023-06-03T02:56:07.122Z,1.50
2023-06-03T02:59:09.064Z,1.30
2023-06-03T03:02:10.956Z,1.30
2023-06-03T03:05:12.710Z,1.73
2023-06-03T03:08:14.586Z,1.73
2023-06-03T03:11:16.576Z,1.60
2023-06-03T03:14:19.840Z,1.67
2023-06-03T03:17:24.047Z,1.48
2023-06-03T03:20:26.810Z,2.00
2023-06-03T03:23:29.798Z,1.60
2023-06-03T03:26:34.894Z,1.63
2023-06-03T03:29:36.897Z,1.10
2023-06-03T03:32:43.708Z,1.15
2023-06-03T03:35:51.457Z,1.25
2023-06-03T03:39:04.418Z,1.40
2023-06-03T03:42:10.830Z,1.27
2023-06-03T03:45:19.588Z,1.30
2023-06-03T03:48:22.685Z,1.30
2023-06-03T03:51:27.412Z,1.20
2023-06-03T03:54:29.825Z,1.25
2023-06-03T03:57:35.818Z,1.27
2023-06-03T04:00:37.772Z,1.40
2023-06-03T04:03:41.631Z,1.20
2023-06-03T04:06:44.188Z,1.30
2023-06-03T04:09:46.507Z,1.48
2023-06-03T04:12:49.952Z,1.23
2023-06-03T04:15:53.575Z,1.30
2023-06-03T04:18:55.881Z,1.17
2023-06-03T04:21:59.334Z,1.20
2023-06-03T04:25:02.207Z,1.20
2023-06-03T04:28:24.426Z,1.20
2023-06-03T04:31:26.385Z,1.80
2023-06-03T04:34:30.407Z,1.20
2023-06-03T04:37:36.589Z,2.80
2023-06-03T04:40:39.809Z,0.95
2023-06-03T04:43:46.520Z,1.13
2023-06-03T04:46:51.439Z,1.15
2023-06-03T04:49:53.880Z,1.30
2023-06-03T04:52:57.540Z,1.10
2023-06-03T04:55:59.780Z,1.33
2023-06-03T04:59:05.312Z,1.17
2023-06-03T05:02:14.713Z,1.10
2023-06-03T05:05:17.445Z,1.02
2023-06-03T05:08:19.592Z,1.10
2023-06-03T05:11:24.517Z,0.90
2023-06-03T05:14:26.539Z,1.15
2023-06-03T05:17:28.495Z,1.10
2023-06-03T05:20:32.559Z,1.20
2023-06-03T05:23:34.668Z,1.08
2023-06-03T05:26:37.731Z,1.00
2023-06-03T05:29:39.556Z,1.30
2023-06-03T05:32:43.205Z,1.05
2023-06-03T05:35:45.043Z,1.30
2023-06-03T05:38:46.848Z,1.08
2023-06-03T05:41:50.705Z,1.20
2023-06-03T05:44:53.061Z,1.52
2023-06-03T05:47:54.952Z,1.52
2023-06-03T05:50:57.406Z,1.27
2023-06-03T05:54:02.886Z,1.10
2023-06-03T05:57:05.198Z,1.30
2023-06-03T06:00:08.968Z,1.40
2023-06-03T06:03:17.271Z,1.40
2023-06-03T06:06:20.734Z,1.50
2023-06-03T06:09:22.592Z,1.50
2023-06-03T06:12:24.798Z,1.42
2023-06-03T06:15:30.580Z,1.40
2023-06-03T06:18:32.795Z,1.23
2023-06-03T06:21:35.236Z,1.00
2023-06-03T06:24:37.791Z,1.83
2023-06-03T06:27:40.159Z,1.05
2023-06-03T06:30:42.172Z,1.40
2023-06-03T06:33:49.282Z,1.10
2023-06-03T06:36:53.987Z,1.23
2023-06-03T06:40:10.115Z,2.33
2023-06-03T06:43:17.573Z,1.30
2023-06-03T06:46:24.660Z,1.20
2023-06-03T06:49:37.864Z,1.27
2023-06-03T06:52:40.030Z,1.20
2023-06-03T06:55:50.051Z,1.10
2023-06-03T06:58:55.442Z,1.33
2023-06-03T07:01:57.663Z,1.17
2023-06-03T07:04:59.620Z,0.90
2023-06-03T07:08:01.525Z,1.20
2023-06-03T07:11:05.811Z,1.20
2023-06-03T07:14:13.870Z,1.10
2023-06-03T07:17:16.033Z,1.80
2023-06-03T07:20:21.697Z,1.58
2023-06-03T07:23:29.941Z,1.10
2023-06-03T07:26:34.592Z,1.00
2023-06-03T07:29:39.681Z,1.30
2023-06-03T07:32:44.781Z,1.40
2023-06-03T07:35:47.299Z,1.10
2023-06-03T07:39:04.635Z,1.10
2023-06-03T07:42:23.668Z,1.33
2023-06-03T07:45:40.052Z,1.42
2023-06-03T07:48:41.904Z,1.05
2023-06-03T07:51:48.761Z,1.10
2023-06-03T07:54:51.140Z,1.55
2023-06-03T07:57:53.673Z,1.00
2023-06-03T08:00:58.239Z,2.03
2023-06-03T08:04:25.841Z,1.10
2023-06-03T08:07:28.510Z,0.95
2023-06-03T08:10:30.285Z,1.20
2023-06-03T08:13:33.660Z,1.38
2023-06-03T08:16:37.203Z,1.67
2023-06-03T08:19:40.003Z,1.10
2023-06-03T08:22:46.040Z,1.02
2023-06-03T08:25:48.357Z,1.10
2023-06-03T08:28:50.274Z,0.98
2023-06-03T08:31:52.161Z,1.27
2023-06-03T08:34:54.016Z,1.20
2023-06-03T08:37:56.043Z,1.40
2023-06-03T08:40:58.324Z,1.88
2023-06-03T08:44:03.728Z,1.08
2023-06-03T08:47:17.057Z,1.23
2023-06-03T08:50:22.114Z,1.10
2023-06-03T08:53:24.608Z,1.77
2023-06-03T08:56:27.158Z,1.27
2023-06-03T08:59:30.505Z,1.33
2023-06-03T09:02:33.589Z,1.15
2023-06-03T09:05:36.542Z,1.40
2023-06-03T09:08:40.934Z,1.20
2023-06-03T09:11:44.739Z,1.20
2023-06-03T09:14:48.305Z,1.40
2023-06-03T09:17:50.667Z,0.98
2023-06-03T09:20:52.570Z,1.52
2023-06-03T09:23:54.409Z,1.10
2023-06-03T09:26:56.145Z,1.30
2023-06-03T09:29:58.054Z,1.70
2023-06-03T09:32:59.937Z,1.10
2023-06-03T09:36:19.037Z,1.20
2023-06-03T09:39:35.855Z,1.30
2023-06-03T09:42:45.768Z,1.00
2023-06-03T09:45:47.492Z,1.23
2023-06-03T09:48:49.408Z,1.00
2023-06-03T09:51:51.429Z,1.10
2023-06-03T09:55:03.246Z,1.02
2023-06-03T09:58:12.430Z,1.13
2023-06-03T10:01:14.354Z,1.10
2023-06-03T10:04:22.084Z,1.00
2023-06-03T10:07:23.861Z,2.40
2023-06-03T10:10:25.716Z,1.13
2023-06-03T10:13:27.668Z,1.33
2023-06-03T10:16:29.508Z,1.00
2023-06-03T10:19:39.575Z,1.50
2023-06-03T10:22:43.465Z,1.20
2023-06-03T10:25:48.475Z,1.00
2023-06-03T10:28:51.302Z,1.23
2023-06-03T10:31:55.212Z,1.23
2023-06-03T10:35:03.371Z,1.00
2023-06-03T10:38:07.005Z,1.05
2023-06-03T10:41:11.173Z,1.08
2023-06-03T10:44:13.318Z,1.10
2023-06-03T10:47:27.098Z,1.13
2023-06-03T10:50:48.876Z,1.17
2023-06-03T10:54:28.737Z,1.25
2023-06-03T10:57:50.535Z,1.00
2023-06-03T11:00:58.268Z,1.02
2023-06-03T11:04:17.561Z,1.00
2023-06-03T11:07:32.001Z,1.15
2023-06-03T11:10:44.520Z,1.23
2023-06-03T11:13:46.497Z,1.02
2023-06-03T11:16:57.579Z,1.40
2023-06-03T11:19:59.906Z,2.10
2023-06-03T11:23:01.692Z,2.60
2023-06-03T11:26:32.494Z,2.17
2023-06-03T11:29:50.008Z,2.03
2023-06-03T11:33:10.692Z,1.50
2023-06-03T11:36:48.912Z,1.17
2023-06-03T11:40:07.919Z,1.35
2023-06-03T11:43:09.793Z,1.15
2023-06-03T11:46:12.831Z,1.67
2023-06-03T11:49:14.902Z,1.27
2023-06-03T11:52:17.252Z,1.95
2023-06-03T11:55:33.465Z,1.40
2023-06-03T11:58:37.237Z,1.00
2023-06-03T12:01:54.977Z,1.40
2023-06-03T12:05:04.861Z,1.38
2023-06-03T12:08:06.695Z,1.40
2023-06-03T12:11:08.619Z,1.40
2023-06-03T12:14:11.522Z,1.27
2023-06-03T12:17:21.300Z,1.30
2023-06-03T12:20:28.137Z,1.60
2023-06-03T12:23:30.044Z,1.97
2023-06-03T12:26:41.512Z,1.40
2023-06-03T12:29:49.033Z,1.50
2023-06-03T12:32:58.636Z,1.73
2023-06-03T12:36:00.628Z,1.23
2023-06-03T12:39:03.470Z,1.10
2023-06-03T12:42:05.609Z,1.50
2023-06-03T12:45:08.145Z,1.40
2023-06-03T12:48:10.176Z,1.50
2023-06-03T12:51:31.744Z,1.60
2023-06-03T12:54:33.728Z,1.42
2023-06-03T12:57:36.017Z,1.52
2023-06-03T13:00:38.306Z,1.60
2023-06-03T13:03:40.147Z,2.30
2023-06-03T13:06:43.329Z,1.70
2023-06-03T13:09:45.205Z,1.40
2023-06-03T13:12:48.460Z,2.10
2023-06-03T13:15:50.569Z,1.20
2023-06-03T13:21:59.095Z,1.27
2023-06-03T13:25:01.120Z,1.42
2023-06-03T13:28:02.966Z,1.52
2023-06-03T13:31:06.499Z,1.70
2023-06-03T13:34:09.314Z,1.60
2023-06-03T13:37:11.443Z,1.50
2023-06-03T13:40:13.348Z,1.60
2023-06-03T13:43:15.345Z,1.67
2023-06-03T13:46:17.224Z,1.40
2023-06-03T13:49:19.781Z,1.40
2023-06-03T13:52:22.296Z,1.73
2023-06-03T13:55:24.655Z,1.40
2023-06-03T13:58:26.541Z,1.23
2023-06-03T14:01:28.486Z,1.40
2023-06-03T14:04:31.280Z,1.20
2023-06-03T14:07:33.381Z,1.52
2023-06-03T14:10:35.130Z,1.75
2023-06-03T14:13:36.877Z,1.20
2023-06-03T14:16:38.986Z,1.40
2023-06-03T14:19:42.001Z,1.80
2023-06-03T14:22:43.938Z,1.50
2023-06-03T14:25:45.736Z,1.67
2023-06-03T14:28:47.519Z,1.75
2023-06-03T14:31:50.058Z,1.70
2023-06-03T14:34:51.940Z,2.00
2023-06-03T14:37:53.898Z,1.30
2023-06-03T14:40:55.904Z,2.00
2023-06-03T14:43:58.617Z,1.33
2023-06-03T14:47:00.476Z,1.38
2023-06-03T14:50:03.158Z,1.42
2023-06-03T14:53:06.662Z,2.38
2023-06-03T14:56:08.691Z,2.63
2023-06-03T14:59:10.604Z,3.00
2023-06-03T15:02:12.612Z,3.13
2023-06-03T15:05:14.532Z,1.85
2023-06-03T15:08:16.639Z,1.40
2023-06-03T15:11:18.572Z,1.70
2023-06-03T15:14:20.385Z,1.70
2023-06-03T15:17:22.947Z,1.42
2023-06-03T15:20:24.746Z,4.05
2023-06-03T15:23:27.001Z,1.58
2023-06-03T15:26:28.814Z,1.63
2023-06-03T15:29:30.800Z,1.50
2023-06-03T15:32:34.662Z,2.47
2023-06-03T15:35:36.641Z,3.00
2023-06-03T15:38:38.643Z,2.80
2023-06-03T15:41:47.350Z,3.88
2023-06-03T15:44:49.323Z,2.25
2023-06-03T15:47:51.195Z,1.73
2023-06-03T15:50:53.023Z,1.42
2023-06-03T15:53:54.807Z,1.63
2023-06-03T15:56:56.721Z,3.33
2023-06-03T15:59:58.739Z,4.00
2023-06-03T16:03:00.779Z,1.95
2023-06-03T16:06:02.570Z,1.90
2023-06-03T16:09:06.123Z,2.85
2023-06-03T16:12:08.788Z,2.33
2023-06-03T16:15:10.991Z,2.10
2023-06-03T16:18:12.829Z,2.58
2023-06-03T16:21:14.967Z,3.55
2023-06-03T16:24:17.731Z,2.30
2023-06-03T16:27:19.858Z,2.78
2023-06-03T16:30:21.753Z,2.55
2023-06-03T16:33:23.649Z,3.08
2023-06-03T16:36:25.424Z,1.90
2023-06-03T16:39:27.380Z,3.25
2023-06-03T16:42:29.346Z,2.60
2023-06-03T16:45:31.225Z,2.20
2023-06-03T16:48:33.031Z,2.28
2023-06-03T16:51:34.910Z,1.88
2023-06-03T16:54:36.658Z,2.28
2023-06-03T16:57:38.428Z,2.33
2023-06-03T17:00:40.381Z,2.25
2023-06-03T17:03:42.476Z,1.90
2023-06-03T17:06:44.358Z,2.33
2023-06-03T17:09:46.104Z,2.80
2023-06-03T17:12:47.888Z,2.80
2023-06-03T17:15:49.834Z,2.20
2023-06-03T17:18:52.185Z,2.10
2023-06-03T17:21:54.432Z,2.35
2023-06-03T17:24:56.427Z,1.95
2023-06-03T17:27:58.220Z,2.55
2023-06-03T17:31:00.943Z,2.00
2023-06-03T17:34:02.947Z,2.28
2023-06-03T17:37:05.124Z,2.38
2023-06-03T17:40:07.984Z,2.80
2023-06-03T17:43:09.769Z,2.13
2023-06-03T17:46:12.492Z,2.15
2023-06-03T17:49:14.489Z,2.17
2023-06-03T17:52:16.298Z,2.90
2023-06-03T17:55:19.665Z,2.03
2023-06-03T17:58:21.487Z,3.13
2023-06-03T18:01:23.344Z,2.85
2023-06-03T18:04:26.408Z,2.55
2023-06-03T18:07:29.582Z,3.03
2023-06-03T18:10:31.778Z,2.58
2023-06-03T18:13:33.653Z,2.55
2023-06-03T18:16:35.665Z,2.30
2023-06-03T18:19:37.461Z,2.80
2023-06-03T18:22:39.311Z,2.67
2023-06-03T18:25:42.757Z,2.13
2023-06-03T18:28:44.612Z,2.10
2023-06-03T18:31:46.874Z,2.50
2023-06-03T18:34:48.846Z,2.00
2023-06-03T18:37:50.758Z,2.22
2023-06-03T18:40:52.490Z,1.77
2023-06-03T18:43:54.382Z,2.00
2023-06-03T18:46:56.278Z,2.00
2023-06-03T18:49:58.072Z,2.30
2023-06-03T18:52:59.969Z,2.22
2023-06-03T18:56:01.888Z,2.40
2023-06-03T18:59:13.812Z,2.80
2023-06-03T19:02:18.949Z,2.35
2023-06-03T19:05:21.064Z,1.90
2023-06-03T19:08:23.341Z,2.03
2023-06-03T19:11:25.538Z,2.50
2023-06-03T19:14:28.752Z,2.22
2023-06-03T19:17:30.776Z,2.30
2023-06-03T19:20:32.680Z,2.08
2023-06-03T19:23:34.533Z,1.90
2023-06-03T19:26:36.444Z,2.15
2023-06-03T19:29:38.318Z,1.92
2023-06-03T19:32:43.687Z,1.98
2023-06-03T19:35:45.456Z,1.80
2023-06-03T19:38:48.020Z,1.65
2023-06-03T19:41:49.988Z,1.88
2023-06-03T19:44:52.004Z,1.55
2023-06-03T19:47:59.070Z,1.70
2023-06-03T19:51:01.248Z,1.55
2023-06-03T19:54:03.124Z,1.52
2023-06-03T19:57:08.777Z,2.10
2023-06-03T20:00:11.107Z,1.88
2023-06-03T20:03:14.497Z,1.55
2023-06-03T20:06:16.395Z,1.70
2023-06-03T20:09:19.372Z,1.60
2023-06-03T20:12:21.928Z,2.00
2023-06-03T20:15:25.709Z,1.73
2023-06-03T20:18:27.748Z,1.58
2023-06-03T20:21:29.646Z,1.50
2023-06-03T20:24:31.484Z,1.60
2023-06-03T20:27:33.356Z,1.60
2023-06-03T20:30:35.167Z,1.83
2023-06-03T20:33:37.034Z,2.10
2023-06-03T20:36:38.901Z,2.10
2023-06-03T20:39:40.732Z,1.60
2023-06-03T20:42:42.490Z,1.60
2023-06-03T20:45:44.249Z,1.90
2023-06-03T20:48:46.009Z,1.50
2023-06-03T20:51:48.081Z,1.60
2023-06-03T20:54:49.885Z,1.55
2023-06-03T20:57:51.677Z,1.52
2023-06-03T21:00:53.485Z,1.63
2023-06-03T21:03:55.343Z,1.48
2023-06-03T21:06:57.215Z,1.92
2023-06-03T21:09:58.935Z,1.58
2023-06-03T21:13:01.500Z,1.80
2023-06-03T21:16:03.398Z,1.58
2023-06-03T21:19:05.940Z,1.40
2023-06-03T21:22:07.796Z,1.50
2023-06-03T21:25:10.548Z,1.75
2023-06-03T21:28:12.286Z,2.13
2023-06-03T21:31:14.095Z,1.98
2023-06-03T21:34:16.114Z,1.40
2023-06-03T21:37:17.914Z,1.70
2023-06-03T21:40:19.849Z,1.70
2023-06-03T21:43:22.084Z,1.63
2023-06-03T21:46:24.110Z,1.70
2023-06-03T21:49:26.166Z,2.00
2023-06-03T21:52:27.945Z,1.60
2023-06-03T21:55:29.690Z,1.60
2023-06-03T21:58:31.568Z,1.60
2023-06-03T22:01:33.432Z,1.38
2023-06-03T22:04:36.147Z,2.15
2023-06-03T22:07:38.013Z,1.90
2023-06-03T22:10:39.768Z,1.77
2023-06-03T22:13:41.859Z,1.52
2023-06-03T22:16:43.689Z,1.85
2023-06-03T22:19:45.457Z,1.52
2023-06-03T22:22:58.457Z,2.00
2023-06-03T22:26:08.155Z,1.70
2023-06-03T22:29:10.179Z,1.80
2023-06-03T22:32:13.555Z,1.90
2023-06-03T22:35:15.372Z,2.00
2023-06-03T22:38:17.161Z,1.83
2023-06-03T22:41:18.944Z,1.70
2023-06-03T22:44:21.085Z,1.70
2023-06-03T22:47:22.849Z,2.08
2023-06-03T22:50:24.733Z,1.63
2023-06-03T22:53:26.599Z,1.95
2023-06-03T22:56:28.466Z,1.90
2023-06-03T22:59:30.474Z,2.00
2023-06-03T23:02:32.478Z,2.10
2023-06-03T23:05:34.284Z,2.15
2023-06-03T23:08:36.099Z,2.28
2023-06-03T23:11:38.192Z,2.05
2023-06-03T23:14:40.060Z,2.13
2023-06-03T23:17:41.996Z,1.80
2023-06-03T23:20:43.753Z,2.53
2023-06-03T23:23:45.649Z,2.10
2023-06-03T23:26:47.498Z,2.30
2023-06-03T23:29:49.280Z,2.38
2023-06-03T23:32:51.137Z,1.90
2023-06-03T23:35:53.075Z,1.50
2023-06-03T23:38:54.902Z,1.70
2023-06-03T23:41:56.798Z,1.67
2023-06-03T23:44:59.937Z,1.42
2023-06-03T23:48:02.081Z,1.75
2023-06-03T23:51:04.493Z,1.48
2023-06-03T23:54:06.466Z,1.42
2023-06-03T23:57:08.313Z,1.88
